<?xml version="1.0" encoding="UTF-8" standalone="no" ?>
<gpx xmlns="http://www.topografix.com/GPX/1/1" xmlns:xsi="http://www.w3.org/2001/XMLSchema-instance" xsi:schemaLocation="http://www.topografix.com/GPX/1/1 http://www.topografix.com/GPX/1/1/gpx.xsd" version="1.1" creator="VisuGPX - https://www.visugpx.com">
  <metadata>
    <name>Vacances 2021</name>
  </metadata>
  <trk>
    <name><![CDATA[Journal actif: 2021-07-24 09:48]]></name>
    <trkseg>
      <trkpt lat="49.15275" lon="5.36574">
        <ele>201.05</ele>
        <time>2021-07-24T11:48:17Z</time>
      </trkpt>
      <trkpt lat="49.15246" lon="5.36544">
        <ele>198.65</ele>
        <time>2021-07-24T11:48:54Z</time>
      </trkpt>
      <trkpt lat="49.15251" lon="5.36549">
        <ele>207.78</ele>
        <time>2021-07-24T11:49:28Z</time>
      </trkpt>
      <trkpt lat="49.15278" lon="5.36559">
        <ele>206.34</ele>
        <time>2021-07-24T11:49:43Z</time>
      </trkpt>
      <trkpt lat="49.15308" lon="5.36578">
        <ele>202.98</ele>
        <time>2021-07-24T11:49:57Z</time>
      </trkpt>
      <trkpt lat="49.15312" lon="5.36581">
        <ele>202.49</ele>
        <time>2021-07-24T11:50:13Z</time>
      </trkpt>
      <trkpt lat="49.15324" lon="5.36588">
        <ele>201.53</ele>
        <time>2021-07-24T11:51:28Z</time>
      </trkpt>
      <trkpt lat="49.15363" lon="5.36611">
        <ele>201.53</ele>
        <time>2021-07-24T11:51:44Z</time>
      </trkpt>
      <trkpt lat="49.15382" lon="5.36577">
        <ele>203.94</ele>
        <time>2021-07-24T11:51:58Z</time>
      </trkpt>
      <trkpt lat="49.15383" lon="5.36575">
        <ele>203.94</ele>
        <time>2021-07-24T11:51:59Z</time>
      </trkpt>
      <trkpt lat="49.15375" lon="5.36569">
        <ele>203.46</ele>
        <time>2021-07-24T11:52:11Z</time>
      </trkpt>
      <trkpt lat="49.15375" lon="5.36569">
        <ele>202.98</ele>
        <time>2021-07-24T11:55:23Z</time>
      </trkpt>
      <trkpt lat="49.15375" lon="5.36569">
        <ele>202.98</ele>
        <time>2021-07-24T11:56:34Z</time>
      </trkpt>
      <trkpt lat="49.15375" lon="5.36569">
        <ele>202.98</ele>
        <time>2021-07-24T11:56:56Z</time>
      </trkpt>
      <trkpt lat="49.15375" lon="5.36569">
        <ele>202.98</ele>
        <time>2021-07-24T11:56:59Z</time>
      </trkpt>
      <trkpt lat="49.15385" lon="5.36567">
        <ele>203.46</ele>
        <time>2021-07-24T11:57:00Z</time>
      </trkpt>
      <trkpt lat="49.15386" lon="5.36566">
        <ele>203.46</ele>
        <time>2021-07-24T11:57:01Z</time>
      </trkpt>
      <trkpt lat="49.15387" lon="5.36562">
        <ele>203.46</ele>
        <time>2021-07-24T11:57:02Z</time>
      </trkpt>
      <trkpt lat="49.154" lon="5.36558">
        <ele>203.46</ele>
        <time>2021-07-24T11:57:12Z</time>
      </trkpt>
      <trkpt lat="49.15447" lon="5.36598">
        <ele>206.82</ele>
        <time>2021-07-24T11:57:26Z</time>
      </trkpt>
      <trkpt lat="49.15505" lon="5.3668">
        <ele>205.86</ele>
        <time>2021-07-24T11:57:40Z</time>
      </trkpt>
      <trkpt lat="49.15564" lon="5.36775">
        <ele>208.74</ele>
        <time>2021-07-24T11:57:55Z</time>
      </trkpt>
      <trkpt lat="49.15577" lon="5.3679">
        <ele>210.67</ele>
        <time>2021-07-24T11:58:04Z</time>
      </trkpt>
      <trkpt lat="49.15584" lon="5.36818">
        <ele>209.22</ele>
        <time>2021-07-24T11:58:17Z</time>
      </trkpt>
      <trkpt lat="49.15589" lon="5.36922">
        <ele>204.9</ele>
        <time>2021-07-24T11:58:29Z</time>
      </trkpt>
      <trkpt lat="49.15589" lon="5.36978">
        <ele>202.98</ele>
        <time>2021-07-24T11:58:35Z</time>
      </trkpt>
      <trkpt lat="49.15588" lon="5.36988">
        <ele>202.49</ele>
        <time>2021-07-24T11:58:36Z</time>
      </trkpt>
      <trkpt lat="49.15551" lon="5.37077">
        <ele>198.17</ele>
        <time>2021-07-24T11:58:47Z</time>
      </trkpt>
      <trkpt lat="49.15545" lon="5.37082">
        <ele>197.69</ele>
        <time>2021-07-24T11:58:48Z</time>
      </trkpt>
      <trkpt lat="49.15462" lon="5.37143">
        <ele>194.32</ele>
        <time>2021-07-24T11:58:59Z</time>
      </trkpt>
      <trkpt lat="49.15322" lon="5.37243">
        <ele>195.77</ele>
        <time>2021-07-24T11:59:12Z</time>
      </trkpt>
      <trkpt lat="49.15104" lon="5.37394">
        <ele>195.77</ele>
        <time>2021-07-24T11:59:30Z</time>
      </trkpt>
      <trkpt lat="49.15" lon="5.375">
        <ele>198.17</ele>
        <time>2021-07-24T11:59:40Z</time>
      </trkpt>
      <trkpt lat="49.14943" lon="5.37655">
        <ele>196.73</ele>
        <time>2021-07-24T11:59:50Z</time>
      </trkpt>
      <trkpt lat="49.1494" lon="5.37665">
        <ele>196.73</ele>
        <time>2021-07-24T11:59:51Z</time>
      </trkpt>
      <trkpt lat="49.14938" lon="5.37671">
        <ele>196.73</ele>
        <time>2021-07-24T11:59:52Z</time>
      </trkpt>
      <trkpt lat="49.14936" lon="5.37676">
        <ele>196.73</ele>
        <time>2021-07-24T11:59:53Z</time>
      </trkpt>
      <trkpt lat="49.14925" lon="5.37668">
        <ele>196.73</ele>
        <time>2021-07-24T11:59:55Z</time>
      </trkpt>
      <trkpt lat="49.14918" lon="5.37672">
        <ele>196.73</ele>
        <time>2021-07-24T11:59:56Z</time>
      </trkpt>
      <trkpt lat="49.14914" lon="5.37677">
        <ele>196.25</ele>
        <time>2021-07-24T11:59:57Z</time>
      </trkpt>
      <trkpt lat="49.14912" lon="5.37683">
        <ele>196.25</ele>
        <time>2021-07-24T11:59:58Z</time>
      </trkpt>
      <trkpt lat="49.14909" lon="5.37688">
        <ele>196.25</ele>
        <time>2021-07-24T11:59:59Z</time>
      </trkpt>
      <trkpt lat="49.149" lon="5.37709">
        <ele>195.28</ele>
        <time>2021-07-24T12:00:05Z</time>
      </trkpt>
      <trkpt lat="49.149" lon="5.37709">
        <ele>195.77</ele>
        <time>2021-07-24T12:00:06Z</time>
      </trkpt>
      <trkpt lat="49.14903" lon="5.3771">
        <ele>196.25</ele>
        <time>2021-07-24T12:00:07Z</time>
      </trkpt>
      <trkpt lat="49.14906" lon="5.37713">
        <ele>197.21</ele>
        <time>2021-07-24T12:00:08Z</time>
      </trkpt>
      <trkpt lat="49.1491" lon="5.37715">
        <ele>198.17</ele>
        <time>2021-07-24T12:00:09Z</time>
      </trkpt>
      <trkpt lat="49.14913" lon="5.37717">
        <ele>199.61</ele>
        <time>2021-07-24T12:00:20Z</time>
      </trkpt>
      <trkpt lat="49.14915" lon="5.37719">
        <ele>200.09</ele>
        <time>2021-07-24T12:00:43Z</time>
      </trkpt>
      <trkpt lat="49.14921" lon="5.37723">
        <ele>200.09</ele>
        <time>2021-07-24T12:00:44Z</time>
      </trkpt>
      <trkpt lat="49.14921" lon="5.37723">
        <ele>200.09</ele>
        <time>2021-07-24T12:00:45Z</time>
      </trkpt>
      <trkpt lat="49.14921" lon="5.37721">
        <ele>200.09</ele>
        <time>2021-07-24T12:00:46Z</time>
      </trkpt>
      <trkpt lat="49.14924" lon="5.37714">
        <ele>200.09</ele>
        <time>2021-07-24T12:00:47Z</time>
      </trkpt>
      <trkpt lat="49.14926" lon="5.37707">
        <ele>200.09</ele>
        <time>2021-07-24T12:00:48Z</time>
      </trkpt>
      <trkpt lat="49.14967" lon="5.37581">
        <ele>200.57</ele>
        <time>2021-07-24T12:01:01Z</time>
      </trkpt>
      <trkpt lat="49.15023" lon="5.37468">
        <ele>198.65</ele>
        <time>2021-07-24T12:01:10Z</time>
      </trkpt>
      <trkpt lat="49.15126" lon="5.37379">
        <ele>197.69</ele>
        <time>2021-07-24T12:01:19Z</time>
      </trkpt>
      <trkpt lat="49.15368" lon="5.37211">
        <ele>197.69</ele>
        <time>2021-07-24T12:01:38Z</time>
      </trkpt>
      <trkpt lat="49.15536" lon="5.37091">
        <ele>198.17</ele>
        <time>2021-07-24T12:01:52Z</time>
      </trkpt>
      <trkpt lat="49.15568" lon="5.37073">
        <ele>199.61</ele>
        <time>2021-07-24T12:01:56Z</time>
      </trkpt>
      <trkpt lat="49.15575" lon="5.37072">
        <ele>200.09</ele>
        <time>2021-07-24T12:01:57Z</time>
      </trkpt>
      <trkpt lat="49.15582" lon="5.37071">
        <ele>200.09</ele>
        <time>2021-07-24T12:01:58Z</time>
      </trkpt>
      <trkpt lat="49.15588" lon="5.3707">
        <ele>200.09</ele>
        <time>2021-07-24T12:01:59Z</time>
      </trkpt>
      <trkpt lat="49.15594" lon="5.3707">
        <ele>200.09</ele>
        <time>2021-07-24T12:02:00Z</time>
      </trkpt>
      <trkpt lat="49.15601" lon="5.37069">
        <ele>199.61</ele>
        <time>2021-07-24T12:02:01Z</time>
      </trkpt>
      <trkpt lat="49.15607" lon="5.37071">
        <ele>199.61</ele>
        <time>2021-07-24T12:02:02Z</time>
      </trkpt>
      <trkpt lat="49.15619" lon="5.37082">
        <ele>199.61</ele>
        <time>2021-07-24T12:02:03Z</time>
      </trkpt>
      <trkpt lat="49.15619" lon="5.37082">
        <ele>199.13</ele>
        <time>2021-07-24T12:02:04Z</time>
      </trkpt>
      <trkpt lat="49.1567" lon="5.37157">
        <ele>200.09</ele>
        <time>2021-07-24T12:02:13Z</time>
      </trkpt>
      <trkpt lat="49.15675" lon="5.37168">
        <ele>200.09</ele>
        <time>2021-07-24T12:02:14Z</time>
      </trkpt>
      <trkpt lat="49.15678" lon="5.37181">
        <ele>200.09</ele>
        <time>2021-07-24T12:02:15Z</time>
      </trkpt>
      <trkpt lat="49.15692" lon="5.37299">
        <ele>199.13</ele>
        <time>2021-07-24T12:02:25Z</time>
      </trkpt>
      <trkpt lat="49.15702" lon="5.37418">
        <ele>200.09</ele>
        <time>2021-07-24T12:02:38Z</time>
      </trkpt>
      <trkpt lat="49.15717" lon="5.37512">
        <ele>198.65</ele>
        <time>2021-07-24T12:02:48Z</time>
      </trkpt>
      <trkpt lat="49.15719" lon="5.3752">
        <ele>198.17</ele>
        <time>2021-07-24T12:02:49Z</time>
      </trkpt>
      <trkpt lat="49.15725" lon="5.37546">
        <ele>196.25</ele>
        <time>2021-07-24T12:02:53Z</time>
      </trkpt>
      <trkpt lat="49.15726" lon="5.37554">
        <ele>195.77</ele>
        <time>2021-07-24T12:02:54Z</time>
      </trkpt>
      <trkpt lat="49.15746" lon="5.3765">
        <ele>195.77</ele>
        <time>2021-07-24T12:03:06Z</time>
      </trkpt>
      <trkpt lat="49.15773" lon="5.37786">
        <ele>196.25</ele>
        <time>2021-07-24T12:03:21Z</time>
      </trkpt>
      <trkpt lat="49.15791" lon="5.37908">
        <ele>196.25</ele>
        <time>2021-07-24T12:03:37Z</time>
      </trkpt>
      <trkpt lat="49.1581" lon="5.37971">
        <ele>194.8</ele>
        <time>2021-07-24T12:03:47Z</time>
      </trkpt>
      <trkpt lat="49.1583" lon="5.38079">
        <ele>196.25</ele>
        <time>2021-07-24T12:04:03Z</time>
      </trkpt>
      <trkpt lat="49.15851" lon="5.382">
        <ele>196.73</ele>
        <time>2021-07-24T12:04:21Z</time>
      </trkpt>
      <trkpt lat="49.15863" lon="5.38243">
        <ele>197.21</ele>
        <time>2021-07-24T12:04:33Z</time>
      </trkpt>
      <trkpt lat="49.15881" lon="5.38299">
        <ele>198.17</ele>
        <time>2021-07-24T12:04:48Z</time>
      </trkpt>
      <trkpt lat="49.15906" lon="5.38362">
        <ele>199.61</ele>
        <time>2021-07-24T12:05:03Z</time>
      </trkpt>
      <trkpt lat="49.15925" lon="5.38397">
        <ele>200.09</ele>
        <time>2021-07-24T12:05:15Z</time>
      </trkpt>
      <trkpt lat="49.1595" lon="5.38418">
        <ele>201.05</ele>
        <time>2021-07-24T12:05:26Z</time>
      </trkpt>
      <trkpt lat="49.15978" lon="5.38441">
        <ele>202.49</ele>
        <time>2021-07-24T12:05:40Z</time>
      </trkpt>
      <trkpt lat="49.15978" lon="5.38441">
        <ele>202.49</ele>
        <time>2021-07-24T12:05:44Z</time>
      </trkpt>
      <trkpt lat="49.15978" lon="5.38454">
        <ele>202.49</ele>
        <time>2021-07-24T12:05:45Z</time>
      </trkpt>
      <trkpt lat="49.15963" lon="5.38485">
        <ele>202.49</ele>
        <time>2021-07-24T12:05:51Z</time>
      </trkpt>
      <trkpt lat="49.15936" lon="5.38553">
        <ele>200.57</ele>
        <time>2021-07-24T12:06:05Z</time>
      </trkpt>
      <trkpt lat="49.15931" lon="5.38576">
        <ele>197.69</ele>
        <time>2021-07-24T12:06:16Z</time>
      </trkpt>
      <trkpt lat="49.15936" lon="5.38613">
        <ele>197.69</ele>
        <time>2021-07-24T12:06:27Z</time>
      </trkpt>
      <trkpt lat="49.15958" lon="5.38672">
        <ele>201.05</ele>
        <time>2021-07-24T12:06:40Z</time>
      </trkpt>
      <trkpt lat="49.15958" lon="5.38672">
        <ele>201.05</ele>
        <time>2021-07-24T12:07:03Z</time>
      </trkpt>
      <trkpt lat="49.1597" lon="5.38697">
        <ele>201.05</ele>
        <time>2021-07-24T12:08:13Z</time>
      </trkpt>
      <trkpt lat="49.15973" lon="5.38701">
        <ele>201.53</ele>
        <time>2021-07-24T12:08:14Z</time>
      </trkpt>
      <trkpt lat="49.15982" lon="5.3872">
        <ele>201.05</ele>
        <time>2021-07-24T12:08:17Z</time>
      </trkpt>
      <trkpt lat="49.15986" lon="5.38725">
        <ele>201.05</ele>
        <time>2021-07-24T12:08:18Z</time>
      </trkpt>
      <trkpt lat="49.16006" lon="5.38768">
        <ele>200.57</ele>
        <time>2021-07-24T12:08:24Z</time>
      </trkpt>
      <trkpt lat="49.16031" lon="5.38814">
        <ele>199.13</ele>
        <time>2021-07-24T12:08:31Z</time>
      </trkpt>
      <trkpt lat="49.16053" lon="5.38862">
        <ele>198.17</ele>
        <time>2021-07-24T12:08:41Z</time>
      </trkpt>
      <trkpt lat="49.16058" lon="5.38869">
        <ele>197.69</ele>
        <time>2021-07-24T12:08:43Z</time>
      </trkpt>
      <trkpt lat="49.16062" lon="5.38879">
        <ele>197.69</ele>
        <time>2021-07-24T12:08:44Z</time>
      </trkpt>
      <trkpt lat="49.16064" lon="5.38881">
        <ele>197.69</ele>
        <time>2021-07-24T12:08:45Z</time>
      </trkpt>
      <trkpt lat="49.16116" lon="5.38979">
        <ele>196.73</ele>
        <time>2021-07-24T12:08:59Z</time>
      </trkpt>
      <trkpt lat="49.16141" lon="5.39009">
        <ele>197.69</ele>
        <time>2021-07-24T12:09:09Z</time>
      </trkpt>
      <trkpt lat="49.16143" lon="5.39006">
        <ele>197.21</ele>
        <time>2021-07-24T12:09:10Z</time>
      </trkpt>
      <trkpt lat="49.16144" lon="5.39002">
        <ele>197.21</ele>
        <time>2021-07-24T12:09:11Z</time>
      </trkpt>
      <trkpt lat="49.16146" lon="5.38997">
        <ele>196.73</ele>
        <time>2021-07-24T12:09:12Z</time>
      </trkpt>
      <trkpt lat="49.16146" lon="5.38997">
        <ele>196.73</ele>
        <time>2021-07-24T12:09:13Z</time>
      </trkpt>
      <trkpt lat="49.16143" lon="5.38994">
        <ele>196.25</ele>
        <time>2021-07-24T12:09:14Z</time>
      </trkpt>
      <trkpt lat="49.1614" lon="5.3899">
        <ele>195.77</ele>
        <time>2021-07-24T12:09:15Z</time>
      </trkpt>
      <trkpt lat="49.16136" lon="5.38987">
        <ele>195.28</ele>
        <time>2021-07-24T12:09:16Z</time>
      </trkpt>
      <trkpt lat="49.16132" lon="5.38983">
        <ele>195.28</ele>
        <time>2021-07-24T12:09:17Z</time>
      </trkpt>
      <trkpt lat="49.16123" lon="5.38972">
        <ele>195.28</ele>
        <time>2021-07-24T12:09:18Z</time>
      </trkpt>
      <trkpt lat="49.16119" lon="5.38967">
        <ele>194.8</ele>
        <time>2021-07-24T12:09:19Z</time>
      </trkpt>
      <trkpt lat="49.16095" lon="5.38937">
        <ele>194.32</ele>
        <time>2021-07-24T12:09:25Z</time>
      </trkpt>
      <trkpt lat="49.16091" lon="5.38929">
        <ele>194.32</ele>
        <time>2021-07-24T12:09:26Z</time>
      </trkpt>
      <trkpt lat="49.16019" lon="5.38791">
        <ele>195.77</ele>
        <time>2021-07-24T12:09:43Z</time>
      </trkpt>
      <trkpt lat="49.15961" lon="5.38677">
        <ele>195.28</ele>
        <time>2021-07-24T12:09:58Z</time>
      </trkpt>
      <trkpt lat="49.15938" lon="5.38624">
        <ele>195.77</ele>
        <time>2021-07-24T12:10:07Z</time>
      </trkpt>
      <trkpt lat="49.15941" lon="5.38598">
        <ele>198.17</ele>
        <time>2021-07-24T12:10:14Z</time>
      </trkpt>
      <trkpt lat="49.1594" lon="5.38592">
        <ele>198.65</ele>
        <time>2021-07-24T12:10:17Z</time>
      </trkpt>
      <trkpt lat="49.15937" lon="5.38591">
        <ele>198.65</ele>
        <time>2021-07-24T12:10:18Z</time>
      </trkpt>
      <trkpt lat="49.15935" lon="5.38591">
        <ele>198.65</ele>
        <time>2021-07-24T12:10:19Z</time>
      </trkpt>
      <trkpt lat="49.15929" lon="5.38598">
        <ele>199.13</ele>
        <time>2021-07-24T12:10:20Z</time>
      </trkpt>
      <trkpt lat="49.15928" lon="5.38599">
        <ele>199.61</ele>
        <time>2021-07-24T12:10:21Z</time>
      </trkpt>
      <trkpt lat="49.15925" lon="5.386">
        <ele>199.61</ele>
        <time>2021-07-24T12:10:22Z</time>
      </trkpt>
      <trkpt lat="49.15922" lon="5.38601">
        <ele>199.13</ele>
        <time>2021-07-24T12:10:23Z</time>
      </trkpt>
      <trkpt lat="49.15918" lon="5.38602">
        <ele>198.65</ele>
        <time>2021-07-24T12:10:24Z</time>
      </trkpt>
      <trkpt lat="49.15915" lon="5.38603">
        <ele>198.17</ele>
        <time>2021-07-24T12:10:25Z</time>
      </trkpt>
      <trkpt lat="49.15911" lon="5.38605">
        <ele>198.17</ele>
        <time>2021-07-24T12:10:26Z</time>
      </trkpt>
      <trkpt lat="49.15908" lon="5.38608">
        <ele>197.69</ele>
        <time>2021-07-24T12:10:27Z</time>
      </trkpt>
      <trkpt lat="49.15904" lon="5.38613">
        <ele>197.69</ele>
        <time>2021-07-24T12:10:28Z</time>
      </trkpt>
      <trkpt lat="49.15868" lon="5.38664">
        <ele>197.21</ele>
        <time>2021-07-24T12:10:39Z</time>
      </trkpt>
      <trkpt lat="49.15853" lon="5.38687">
        <ele>197.69</ele>
        <time>2021-07-24T12:10:45Z</time>
      </trkpt>
      <trkpt lat="49.1585" lon="5.38686">
        <ele>198.17</ele>
        <time>2021-07-24T12:10:46Z</time>
      </trkpt>
      <trkpt lat="49.15848" lon="5.38683">
        <ele>198.17</ele>
        <time>2021-07-24T12:10:47Z</time>
      </trkpt>
      <trkpt lat="49.1582" lon="5.38645">
        <ele>198.17</ele>
        <time>2021-07-24T12:10:56Z</time>
      </trkpt>
      <trkpt lat="49.1582" lon="5.38645">
        <ele>198.17</ele>
        <time>2021-07-24T12:10:57Z</time>
      </trkpt>
      <trkpt lat="49.15817" lon="5.3864">
        <ele>198.65</ele>
        <time>2021-07-24T12:10:58Z</time>
      </trkpt>
      <trkpt lat="49.15777" lon="5.38556">
        <ele>197.21</ele>
        <time>2021-07-24T12:11:11Z</time>
      </trkpt>
      <trkpt lat="49.15777" lon="5.38556">
        <ele>196.73</ele>
        <time>2021-07-24T12:11:12Z</time>
      </trkpt>
      <trkpt lat="49.15773" lon="5.38544">
        <ele>196.73</ele>
        <time>2021-07-24T12:11:21Z</time>
      </trkpt>
    </trkseg>
  </trk>
</gpx>